sensor_id;sensor_type;location;lat;lon;timestamp;pressure;altitude;pressure_sealevel;temperature;humidity
68873;BME280;55907;50.806;12.882;2023-08-12T00:01:17;978.1;;;18.7;72.9
68873;BME280;55907;50.806;12.882;2023-08-12T00:04:19;978.1;;;18.6;72.3
68873;BME280;55907;50.806;12.882;2023-08-12T00:07:20;978.1;;;18.6;71.8
68873;BME280;55907;50.806;12.882;2023-08-12T00:10:22;978.1;;;18.6;71.9
68873;BME280;55907;50.806;12.882;2023-08-12T00:13:23;978.2;;;18.6;71.7
68873;BME280;55907;50.806;12.882;2023-08-12T00:16:24;978.2;;;18.6;72.2
68873;BME280;55907;50.806;12.882;2023-08-12T00:19:26;978.1;;;18.5;72.2
68873;BME280;55907;50.806;12.882;2023-08-12T00:22:27;978.1;;;18.5;72.3
68873;BME280;55907;50.806;12.882;2023-08-12T00:25:29;978.1;;;18.5;72.2
68873;BME280;55907;50.806;12.882;2023-08-12T00:28:30;978.1;;;18.5;72.6
68873;BME280;55907;50.806;12.882;2023-08-12T00:31:31;978.2;;;18.5;72.5
68873;BME280;55907;50.806;12.882;2023-08-12T00:34:33;978.2;;;18.5;72.6
68873;BME280;55907;50.806;12.882;2023-08-12T00:37:34;978.1;;;18.4;72.7
68873;BME280;55907;50.806;12.882;2023-08-12T00:40:36;978.2;;;18.4;72.7
68873;BME280;55907;50.806;12.882;2023-08-12T00:43:37;978.1;;;18.4;71.3
68873;BME280;55907;50.806;12.882;2023-08-12T00:46:40;978.1;;;18.3;71.0
68873;BME280;55907;50.806;12.882;2023-08-12T00:49:40;978.1;;;18.3;72.6
68873;BME280;55907;50.806;12.882;2023-08-12T00:52:41;978.1;;;18.3;71.1
68873;BME280;55907;50.806;12.882;2023-08-12T00:55:43;978.1;;;18.2;71.3
68873;BME280;55907;50.806;12.882;2023-08-12T00:58:45;978.1;;;18.2;72.0
68873;BME280;55907;50.806;12.882;2023-08-12T01:01:47;978.0;;;18.2;71.8
68873;BME280;55907;50.806;12.882;2023-08-12T01:04:47;978.1;;;18.3;71.9
68873;BME280;55907;50.806;12.882;2023-08-12T01:07:49;978.0;;;18.3;72.0
68873;BME280;55907;50.806;12.882;2023-08-12T01:10:57;978.0;;;18.3;71.9
68873;BME280;55907;50.806;12.882;2023-08-12T01:13:56;978.0;;;18.3;71.8
68873;BME280;55907;50.806;12.882;2023-08-12T01:17:02;977.9;;;18.3;71.3
68873;BME280;55907;50.806;12.882;2023-08-12T01:19:55;977.9;;;18.4;71.4
68873;BME280;55907;50.806;12.882;2023-08-12T01:22:58;977.9;;;18.4;71.3
68873;BME280;55907;50.806;12.882;2023-08-12T01:25:57;977.9;;;18.4;71.5
68873;BME280;55907;50.806;12.882;2023-08-12T01:28:58;977.8;;;18.4;72.2
68873;BME280;55907;50.806;12.882;2023-08-12T01:32:07;977.8;;;18.4;71.8
68873;BME280;55907;50.806;12.882;2023-08-12T01:35:06;977.8;;;18.4;72.6
68873;BME280;55907;50.806;12.882;2023-08-12T01:38:06;977.7;;;18.3;72.8
68873;BME280;55907;50.806;12.882;2023-08-12T01:41:05;977.7;;;18.3;73.7
68873;BME280;55907;50.806;12.882;2023-08-12T01:44:06;977.6;;;18.3;74.1
68873;BME280;55907;50.806;12.882;2023-08-12T01:47:08;977.6;;;18.3;73.7
68873;BME280;55907;50.806;12.882;2023-08-12T01:50:09;977.6;;;18.2;74.2
68873;BME280;55907;50.806;12.882;2023-08-12T01:53:10;977.5;;;18.2;74.2
68873;BME280;55907;50.806;12.882;2023-08-12T01:56:11;977.5;;;18.2;74.2
68873;BME280;55907;50.806;12.882;2023-08-12T01:59:13;977.5;;;18.2;74.5
68873;BME280;55907;50.806;12.882;2023-08-12T02:02:14;977.5;;;18.1;74.5
68873;BME280;55907;50.806;12.882;2023-08-12T02:05:16;977.4;;;18.1;75.1
68873;BME280;55907;50.806;12.882;2023-08-12T02:08:17;977.4;;;18.1;74.8
68873;BME280;55907;50.806;12.882;2023-08-12T02:11:18;977.4;;;18.0;74.9
68873;BME280;55907;50.806;12.882;2023-08-12T02:14:20;977.3;;;18.0;74.5
68873;BME280;55907;50.806;12.882;2023-08-12T02:17:21;977.4;;;18.0;74.7
68873;BME280;55907;50.806;12.882;2023-08-12T02:20:23;977.3;;;18.0;75.2
68873;BME280;55907;50.806;12.882;2023-08-12T02:23:24;977.3;;;18.0;75.7
68873;BME280;55907;50.806;12.882;2023-08-12T02:26:26;977.3;;;17.9;75.4
68873;BME280;55907;50.806;12.882;2023-08-12T02:29:27;977.3;;;17.9;75.5
68873;BME280;55907;50.806;12.882;2023-08-12T02:32:29;977.2;;;17.9;75.2
68873;BME280;55907;50.806;12.882;2023-08-12T02:35:30;977.2;;;17.9;75.9
68873;BME280;55907;50.806;12.882;2023-08-12T02:38:31;977.1;;;17.9;76.2
68873;BME280;55907;50.806;12.882;2023-08-12T02:41:33;977.1;;;17.9;76.3
68873;BME280;55907;50.806;12.882;2023-08-12T02:44:34;977.0;;;17.9;76.0
68873;BME280;55907;50.806;12.882;2023-08-12T02:47:36;977.0;;;17.9;76.0
68873;BME280;55907;50.806;12.882;2023-08-12T02:50:37;977.0;;;17.9;73.7
68873;BME280;55907;50.806;12.882;2023-08-12T02:53:39;977.1;;;17.9;73.5
68873;BME280;55907;50.806;12.882;2023-08-12T02:56:40;977.1;;;17.9;73.3
68873;BME280;55907;50.806;12.882;2023-08-12T02:59:41;977.1;;;17.9;73.6
68873;BME280;55907;50.806;12.882;2023-08-12T03:02:43;977.0;;;17.9;74.0
68873;BME280;55907;50.806;12.882;2023-08-12T03:05:45;976.9;;;17.9;73.5
68873;BME280;55907;50.806;12.882;2023-08-12T03:08:46;976.9;;;17.9;73.7
68873;BME280;55907;50.806;12.882;2023-08-12T03:11:47;976.8;;;17.8;73.9
68873;BME280;55907;50.806;12.882;2023-08-12T03:14:49;976.8;;;17.8;74.7
68873;BME280;55907;50.806;12.882;2023-08-12T03:17:50;976.9;;;17.8;74.2
68873;BME280;55907;50.806;12.882;2023-08-12T03:20:51;976.9;;;17.8;74.9
68873;BME280;55907;50.806;12.882;2023-08-12T03:23:53;976.9;;;17.8;74.7
68873;BME280;55907;50.806;12.882;2023-08-12T03:26:54;976.9;;;17.8;74.1
68873;BME280;55907;50.806;12.882;2023-08-12T03:29:56;976.9;;;17.8;75.4
68873;BME280;55907;50.806;12.882;2023-08-12T03:32:57;976.9;;;17.8;75.0
68873;BME280;55907;50.806;12.882;2023-08-12T03:35:59;977.0;;;17.8;75.3
68873;BME280;55907;50.806;12.882;2023-08-12T03:39:00;976.9;;;17.8;75.2
68873;BME280;55907;50.806;12.882;2023-08-12T03:42:02;976.9;;;17.8;75.4
68873;BME280;55907;50.806;12.882;2023-08-12T03:45:04;976.8;;;17.8;75.2
68873;BME280;55907;50.806;12.882;2023-08-12T03:48:05;976.8;;;17.8;76.0
68873;BME280;55907;50.806;12.882;2023-08-12T03:51:06;976.9;;;17.8;76.5
68873;BME280;55907;50.806;12.882;2023-08-12T03:54:07;976.9;;;17.8;76.9
68873;BME280;55907;50.806;12.882;2023-08-12T03:57:09;976.9;;;17.8;76.6
68873;BME280;55907;50.806;12.882;2023-08-12T04:00:11;976.8;;;17.8;77.2
68873;BME280;55907;50.806;12.882;2023-08-12T04:03:12;976.8;;;17.8;76.9
68873;BME280;55907;50.806;12.882;2023-08-12T04:06:13;976.8;;;17.9;76.9
68873;BME280;55907;50.806;12.882;2023-08-12T04:09:14;976.8;;;17.9;76.5
68873;BME280;55907;50.806;12.882;2023-08-12T04:12:16;976.8;;;18.0;77.3
68873;BME280;55907;50.806;12.882;2023-08-12T04:15:17;976.8;;;17.9;78.1
68873;BME280;55907;50.806;12.882;2023-08-12T04:18:19;976.8;;;17.9;78.0
68873;BME280;55907;50.806;12.882;2023-08-12T04:21:20;976.8;;;18.0;77.0
68873;BME280;55907;50.806;12.882;2023-08-12T04:24:22;976.8;;;18.2;76.4
68873;BME280;55907;50.806;12.882;2023-08-12T04:27:23;976.8;;;18.3;75.4
68873;BME280;55907;50.806;12.882;2023-08-12T04:30:25;976.7;;;18.4;75.0
68873;BME280;55907;50.806;12.882;2023-08-12T04:33:26;976.7;;;18.5;74.4
68873;BME280;55907;50.806;12.882;2023-08-12T04:36:27;976.6;;;18.6;74.0
68873;BME280;55907;50.806;12.882;2023-08-12T04:39:29;976.6;;;18.8;74.0
68873;BME280;55907;50.806;12.882;2023-08-12T04:42:30;976.6;;;18.9;73.8
68873;BME280;55907;50.806;12.882;2023-08-12T04:45:32;976.6;;;19.1;72.9
68873;BME280;55907;50.806;12.882;2023-08-12T04:48:33;976.6;;;19.2;72.4
68873;BME280;55907;50.806;12.882;2023-08-12T04:51:35;976.6;;;19.5;71.6
68873;BME280;55907;50.806;12.882;2023-08-12T04:54:36;976.6;;;19.9;70.3
68873;BME280;55907;50.806;12.882;2023-08-12T04:57:37;976.7;;;20.1;69.6
68873;BME280;55907;50.806;12.882;2023-08-12T05:00:39;976.7;;;20.3;69.1
68873;BME280;55907;50.806;12.882;2023-08-12T05:03:40;976.7;;;20.5;68.7
68873;BME280;55907;50.806;12.882;2023-08-12T05:06:42;976.6;;;20.7;68.3
68873;BME280;55907;50.806;12.882;2023-08-12T05:09:43;976.7;;;20.9;67.9
68873;BME280;55907;50.806;12.882;2023-08-12T05:12:44;976.7;;;21.4;66.6
68873;BME280;55907;50.806;12.882;2023-08-12T05:15:46;976.7;;;21.5;65.5
68873;BME280;55907;50.806;12.882;2023-08-12T05:18:47;976.6;;;21.4;65.7
68873;BME280;55907;50.806;12.882;2023-08-12T05:21:49;976.6;;;21.1;66.3
68873;BME280;55907;50.806;12.882;2023-08-12T05:24:50;976.6;;;20.9;67.0
68873;BME280;55907;50.806;12.882;2023-08-12T05:27:51;976.6;;;20.7;67.3
68873;BME280;55907;50.806;12.882;2023-08-12T05:30:53;976.6;;;20.6;67.9
68873;BME280;55907;50.806;12.882;2023-08-12T05:33:54;976.6;;;20.5;68.5
68873;BME280;55907;50.806;12.882;2023-08-12T05:36:56;976.5;;;20.4;68.8
68873;BME280;55907;50.806;12.882;2023-08-12T05:39:57;976.6;;;20.4;69.3
68873;BME280;55907;50.806;12.882;2023-08-12T05:42:59;976.6;;;20.5;69.0
68873;BME280;55907;50.806;12.882;2023-08-12T05:46:00;976.6;;;20.6;68.2
68873;BME280;55907;50.806;12.882;2023-08-12T05:49:01;976.6;;;20.9;67.1
68873;BME280;55907;50.806;12.882;2023-08-12T05:52:03;976.5;;;21.2;66.5
68873;BME280;55907;50.806;12.882;2023-08-12T05:55:05;976.6;;;21.6;65.6
68873;BME280;55907;50.806;12.882;2023-08-12T05:58:07;976.5;;;21.9;64.6
68873;BME280;55907;50.806;12.882;2023-08-12T06:01:07;976.6;;;22.3;63.0
68873;BME280;55907;50.806;12.882;2023-08-12T06:04:08;976.6;;;22.6;61.9
68873;BME280;55907;50.806;12.882;2023-08-12T06:07:10;976.5;;;23.0;60.8
68873;BME280;55907;50.806;12.882;2023-08-12T06:10:11;976.6;;;23.4;61.0
68873;BME280;55907;50.806;12.882;2023-08-12T06:13:13;976.6;;;23.9;61.4
68873;BME280;55907;50.806;12.882;2023-08-12T06:16:14;976.6;;;24.3;60.1
68873;BME280;55907;50.806;12.882;2023-08-12T06:19:15;976.5;;;24.6;59.0
68873;BME280;55907;50.806;12.882;2023-08-12T06:22:17;976.5;;;25.0;58.5
68873;BME280;55907;50.806;12.882;2023-08-12T06:25:19;976.5;;;25.2;56.3
68873;BME280;55907;50.806;12.882;2023-08-12T06:28:19;976.5;;;25.3;55.9
68873;BME280;55907;50.806;12.882;2023-08-12T06:31:21;976.5;;;25.4;55.7
68873;BME280;55907;50.806;12.882;2023-08-12T06:34:22;976.5;;;25.5;56.5
68873;BME280;55907;50.806;12.882;2023-08-12T06:37:24;976.5;;;25.7;56.7
68873;BME280;55907;50.806;12.882;2023-08-12T06:40:25;976.4;;;25.9;56.9
68873;BME280;55907;50.806;12.882;2023-08-12T06:43:26;976.5;;;26.1;55.6
68873;BME280;55907;50.806;12.882;2023-08-12T06:46:28;976.5;;;26.2;54.4
68873;BME280;55907;50.806;12.882;2023-08-12T06:49:29;976.5;;;26.3;55.3
68873;BME280;55907;50.806;12.882;2023-08-12T06:52:30;976.4;;;26.4;55.8
68873;BME280;55907;50.806;12.882;2023-08-12T06:55:32;976.4;;;26.5;55.1
68873;BME280;55907;50.806;12.882;2023-08-12T06:58:33;976.4;;;26.6;54.3
68873;BME280;55907;50.806;12.882;2023-08-12T07:01:34;976.4;;;26.7;53.1
68873;BME280;55907;50.806;12.882;2023-08-12T07:04:36;976.4;;;26.7;52.9
68873;BME280;55907;50.806;12.882;2023-08-12T07:07:37;976.3;;;26.7;53.3
68873;BME280;55907;50.806;12.882;2023-08-12T07:10:39;976.4;;;26.9;54.1
68873;BME280;55907;50.806;12.882;2023-08-12T07:13:40;976.3;;;27.0;53.3
68873;BME280;55907;50.806;12.882;2023-08-12T07:16:41;976.3;;;27.1;52.4
68873;BME280;55907;50.806;12.882;2023-08-12T07:19:43;976.4;;;27.2;53.8
68873;BME280;55907;50.806;12.882;2023-08-12T07:22:44;976.3;;;27.5;53.2
68873;BME280;55907;50.806;12.882;2023-08-12T07:25:45;976.4;;;27.9;49.2
68873;BME280;55907;50.806;12.882;2023-08-12T07:28:47;976.4;;;28.1;50.8
68873;BME280;55907;50.806;12.882;2023-08-12T07:31:48;976.3;;;27.9;49.4
68873;BME280;55907;50.806;12.882;2023-08-12T07:34:49;976.3;;;27.6;48.6
68873;BME280;55907;50.806;12.882;2023-08-12T07:37:51;976.3;;;27.2;48.8
68873;BME280;55907;50.806;12.882;2023-08-12T07:40:53;976.3;;;27.2;50.2
68873;BME280;55907;50.806;12.882;2023-08-12T07:43:53;976.3;;;27.1;50.2
68873;BME280;55907;50.806;12.882;2023-08-12T07:46:55;976.3;;;27.1;50.1
68873;BME280;55907;50.806;12.882;2023-08-12T07:49:56;976.3;;;27.1;50.9
68873;BME280;55907;50.806;12.882;2023-08-12T07:52:57;976.3;;;27.2;51.2
68873;BME280;55907;50.806;12.882;2023-08-12T07:55:59;976.3;;;27.1;50.8
68873;BME280;55907;50.806;12.882;2023-08-12T07:59:00;976.3;;;27.1;50.8
68873;BME280;55907;50.806;12.882;2023-08-12T08:02:02;976.2;;;27.3;51.3
68873;BME280;55907;50.806;12.882;2023-08-12T08:05:04;976.2;;;27.5;50.2
68873;BME280;55907;50.806;12.882;2023-08-12T08:08:04;976.2;;;27.9;48.6
68873;BME280;55907;50.806;12.882;2023-08-12T08:11:06;976.2;;;28.2;46.9
68873;BME280;55907;50.806;12.882;2023-08-12T08:14:07;976.2;;;28.6;45.2
68873;BME280;55907;50.806;12.882;2023-08-12T08:17:08;976.2;;;29.1;43.1
68873;BME280;55907;50.806;12.882;2023-08-12T08:20:10;976.2;;;29.8;42.5
68873;BME280;55907;50.806;12.882;2023-08-12T08:23:11;976.1;;;30.3;42.3
68873;BME280;55907;50.806;12.882;2023-08-12T08:26:12;976.1;;;30.6;43.0
68873;BME280;55907;50.806;12.882;2023-08-12T08:29:14;976.1;;;30.7;40.8
68873;BME280;55907;50.806;12.882;2023-08-12T08:32:15;976.1;;;30.8;40.4
68873;BME280;55907;50.806;12.882;2023-08-12T08:35:16;976.1;;;30.7;40.3
68873;BME280;55907;50.806;12.882;2023-08-12T08:38:18;976.1;;;30.6;41.2
68873;BME280;55907;50.806;12.882;2023-08-12T08:41:19;976.1;;;30.3;41.5
68873;BME280;55907;50.806;12.882;2023-08-12T08:44:22;976.1;;;30.2;42.5
68873;BME280;55907;50.806;12.882;2023-08-12T08:47:25;976.1;;;30.0;39.8
68873;BME280;55907;50.806;12.882;2023-08-12T08:50:23;976.1;;;29.9;39.0
68873;BME280;55907;50.806;12.882;2023-08-12T08:53:24;976.1;;;29.7;38.3
68873;BME280;55907;50.806;12.882;2023-08-12T08:56:26;976.2;;;29.7;38.7
68873;BME280;55907;50.806;12.882;2023-08-12T08:59:27;976.2;;;29.6;38.3
68873;BME280;55907;50.806;12.882;2023-08-12T09:02:29;976.2;;;29.6;38.6
68873;BME280;55907;50.806;12.882;2023-08-12T09:05:30;976.2;;;29.7;38.4
68873;BME280;55907;50.806;12.882;2023-08-12T09:08:31;976.2;;;29.7;38.1
68873;BME280;55907;50.806;12.882;2023-08-12T09:11:33;976.2;;;29.7;37.6
68873;BME280;55907;50.806;12.882;2023-08-12T09:14:34;976.2;;;29.9;36.4
68873;BME280;55907;50.806;12.882;2023-08-12T09:17:35;976.2;;;30.1;36.7
68873;BME280;55907;50.806;12.882;2023-08-12T09:20:36;976.2;;;30.4;37.8
68873;BME280;55907;50.806;12.882;2023-08-12T09:23:39;976.1;;;30.4;36.6
68873;BME280;55907;50.806;12.882;2023-08-12T09:26:43;976.1;;;30.5;38.3
68873;BME280;55907;50.806;12.882;2023-08-12T09:29:40;976.0;;;30.8;37.1
68873;BME280;55907;50.806;12.882;2023-08-12T09:32:57;976.0;;;30.8;36.7
68873;BME280;55907;50.806;12.882;2023-08-12T09:35:43;976.0;;;30.8;36.2
68873;BME280;55907;50.806;12.882;2023-08-12T09:38:45;975.9;;;30.9;36.5
68873;BME280;55907;50.806;12.882;2023-08-12T09:41:45;975.9;;;31.1;36.0
68873;BME280;55907;50.806;12.882;2023-08-12T09:44:47;975.9;;;31.1;34.8
68873;BME280;55907;50.806;12.882;2023-08-12T09:47:48;975.8;;;31.1;35.7
68873;BME280;55907;50.806;12.882;2023-08-12T09:50:50;975.8;;;31.3;34.6
68873;BME280;55907;50.806;12.882;2023-08-12T09:53:51;975.8;;;31.4;35.8
68873;BME280;55907;50.806;12.882;2023-08-12T09:56:57;975.8;;;31.4;34.8
68873;BME280;55907;50.806;12.882;2023-08-12T09:59:54;975.9;;;31.4;35.2
68873;BME280;55907;50.806;12.882;2023-08-12T10:02:55;975.9;;;31.6;36.3
68873;BME280;55907;50.806;12.882;2023-08-12T10:05:57;975.9;;;31.8;36.0
68873;BME280;55907;50.806;12.882;2023-08-12T10:08:58;975.8;;;31.6;34.3
68873;BME280;55907;50.806;12.882;2023-08-12T10:11:59;975.9;;;31.5;35.1
68873;BME280;55907;50.806;12.882;2023-08-12T10:15:00;975.8;;;31.1;34.3
68873;BME280;55907;50.806;12.882;2023-08-12T10:18:03;975.8;;;30.8;35.1
68873;BME280;55907;50.806;12.882;2023-08-12T10:21:03;975.8;;;30.7;34.8
68873;BME280;55907;50.806;12.882;2023-08-12T10:24:05;975.8;;;30.5;34.8
68873;BME280;55907;50.806;12.882;2023-08-12T10:27:06;975.7;;;30.4;34.5
68873;BME280;55907;50.806;12.882;2023-08-12T10:30:07;975.7;;;30.3;34.9
68873;BME280;55907;50.806;12.882;2023-08-12T10:33:08;975.7;;;30.4;35.7
68873;BME280;55907;50.806;12.882;2023-08-12T10:36:10;975.7;;;30.4;35.3
68873;BME280;55907;50.806;12.882;2023-08-12T10:39:11;975.7;;;30.3;34.9
68873;BME280;55907;50.806;12.882;2023-08-12T10:42:12;975.7;;;30.4;35.3
68873;BME280;55907;50.806;12.882;2023-08-12T10:45:15;975.7;;;30.7;34.0
68873;BME280;55907;50.806;12.882;2023-08-12T10:48:16;975.7;;;31.0;34.1
68873;BME280;55907;50.806;12.882;2023-08-12T10:51:16;975.7;;;31.5;35.2
68873;BME280;55907;50.806;12.882;2023-08-12T10:54:20;975.7;;;31.8;33.4
68873;BME280;55907;50.806;12.882;2023-08-12T10:57:36;975.6;;;31.9;32.6
68873;BME280;55907;50.806;12.882;2023-08-12T11:00:23;975.6;;;32.0;31.8
68873;BME280;55907;50.806;12.882;2023-08-12T11:03:21;975.7;;;32.0;30.8
68873;BME280;55907;50.806;12.882;2023-08-12T11:06:23;975.6;;;31.9;31.0
68873;BME280;55907;50.806;12.882;2023-08-12T11:09:24;975.7;;;32.2;32.0
68873;BME280;55907;50.806;12.882;2023-08-12T11:12:29;975.7;;;32.4;31.4
68873;BME280;55907;50.806;12.882;2023-08-12T11:15:31;975.7;;;32.2;31.0
68873;BME280;55907;50.806;12.882;2023-08-12T11:18:29;975.7;;;32.3;31.3
68873;BME280;55907;50.806;12.882;2023-08-12T11:21:29;975.7;;;32.1;31.0
68873;BME280;55907;50.806;12.882;2023-08-12T11:24:31;975.7;;;31.9;32.1
68873;BME280;55907;50.806;12.882;2023-08-12T11:27:36;975.7;;;31.8;32.4
68873;BME280;55907;50.806;12.882;2023-08-12T11:30:34;975.6;;;31.8;32.1
68873;BME280;55907;50.806;12.882;2023-08-12T11:33:35;975.6;;;31.9;32.1
68873;BME280;55907;50.806;12.882;2023-08-12T11:36:36;975.6;;;31.9;32.1
68873;BME280;55907;50.806;12.882;2023-08-12T11:39:38;975.5;;;32.0;32.9
68873;BME280;55907;50.806;12.882;2023-08-12T11:42:40;975.5;;;32.0;32.5
68873;BME280;55907;50.806;12.882;2023-08-12T11:45:41;975.5;;;31.5;33.1
68873;BME280;55907;50.806;12.882;2023-08-12T11:48:43;975.5;;;31.2;32.8
68873;BME280;55907;50.806;12.882;2023-08-12T11:51:46;975.5;;;30.9;33.4
68873;BME280;55907;50.806;12.882;2023-08-12T11:54:44;975.4;;;30.8;34.4
68873;BME280;55907;50.806;12.882;2023-08-12T11:57:45;975.4;;;30.6;34.8
68873;BME280;55907;50.806;12.882;2023-08-12T12:00:47;975.4;;;30.5;35.3
68873;BME280;55907;50.806;12.882;2023-08-12T12:03:50;975.3;;;30.5;34.4
68873;BME280;55907;50.806;12.882;2023-08-12T12:06:49;975.4;;;30.5;34.8
68873;BME280;55907;50.806;12.882;2023-08-12T12:09:51;975.3;;;30.5;34.2
68873;BME280;55907;50.806;12.882;2023-08-12T12:12:54;975.3;;;30.6;34.7
68873;BME280;55907;50.806;12.882;2023-08-12T12:15:53;975.3;;;30.7;34.1
68873;BME280;55907;50.806;12.882;2023-08-12T12:18:57;975.2;;;30.7;34.1
68873;BME280;55907;50.806;12.882;2023-08-12T12:21:56;975.3;;;30.8;34.7
68873;BME280;55907;50.806;12.882;2023-08-12T12:24:58;975.2;;;31.1;33.8
68873;BME280;55907;50.806;12.882;2023-08-12T12:27:59;975.1;;;31.3;33.0
68873;BME280;55907;50.806;12.882;2023-08-12T12:31:00;975.1;;;31.5;33.4
68873;BME280;55907;50.806;12.882;2023-08-12T12:34:02;975.1;;;31.7;32.8
68873;BME280;55907;50.806;12.882;2023-08-12T12:37:03;975.0;;;31.7;32.8
68873;BME280;55907;50.806;12.882;2023-08-12T12:40:05;975.0;;;31.8;31.2
68873;BME280;55907;50.806;12.882;2023-08-12T12:43:05;974.9;;;31.9;31.9
68873;BME280;55907;50.806;12.882;2023-08-12T12:46:07;974.9;;;32.1;30.4
68873;BME280;55907;50.806;12.882;2023-08-12T12:49:08;974.9;;;32.5;30.6
68873;BME280;55907;50.806;12.882;2023-08-12T12:52:09;974.8;;;33.2;29.8
68873;BME280;55907;50.806;12.882;2023-08-12T12:55:11;974.7;;;33.3;29.4
68873;BME280;55907;50.806;12.882;2023-08-12T12:58:12;974.7;;;33.4;28.4
68873;BME280;55907;50.806;12.882;2023-08-12T13:01:13;974.7;;;33.4;30.0
68873;BME280;55907;50.806;12.882;2023-08-12T13:04:15;974.6;;;33.4;29.6
68873;BME280;55907;50.806;12.882;2023-08-12T13:07:16;974.6;;;33.4;27.4
68873;BME280;55907;50.806;12.882;2023-08-12T13:10:18;974.5;;;33.4;28.3
68873;BME280;55907;50.806;12.882;2023-08-12T13:13:19;974.5;;;33.5;28.2
68873;BME280;55907;50.806;12.882;2023-08-12T13:16:20;974.5;;;33.5;27.6
68873;BME280;55907;50.806;12.882;2023-08-12T13:19:21;974.5;;;33.3;27.3
68873;BME280;55907;50.806;12.882;2023-08-12T13:22:23;974.4;;;33.4;28.5
68873;BME280;55907;50.806;12.882;2023-08-12T13:25:24;974.4;;;33.3;27.9
68873;BME280;55907;50.806;12.882;2023-08-12T13:28:25;974.4;;;33.3;28.2
68873;BME280;55907;50.806;12.882;2023-08-12T13:31:27;974.5;;;32.7;29.2
68873;BME280;55907;50.806;12.882;2023-08-12T13:34:28;974.4;;;32.4;29.4
68873;BME280;55907;50.806;12.882;2023-08-12T13:37:29;974.4;;;32.6;29.5
68873;BME280;55907;50.806;12.882;2023-08-12T13:43:32;974.4;;;32.8;29.5
68873;BME280;55907;50.806;12.882;2023-08-12T13:46:34;974.5;;;32.7;30.6
68873;BME280;55907;50.806;12.882;2023-08-12T13:49:35;974.5;;;32.2;31.2
68873;BME280;55907;50.806;12.882;2023-08-12T13:52:36;974.4;;;31.9;31.9
68873;BME280;55907;50.806;12.882;2023-08-12T13:55:38;974.5;;;31.7;32.2
68873;BME280;55907;50.806;12.882;2023-08-12T13:58:39;974.4;;;31.6;31.9
68873;BME280;55907;50.806;12.882;2023-08-12T14:01:40;974.5;;;31.6;32.1
68873;BME280;55907;50.806;12.882;2023-08-12T14:04:41;974.5;;;31.7;31.8
68873;BME280;55907;50.806;12.882;2023-08-12T14:07:43;974.4;;;31.8;31.4
68873;BME280;55907;50.806;12.882;2023-08-12T14:10:45;974.4;;;32.1;31.6
68873;BME280;55907;50.806;12.882;2023-08-12T14:13:46;974.3;;;32.5;31.9
68873;BME280;55907;50.806;12.882;2023-08-12T14:16:47;974.2;;;32.6;31.7
68873;BME280;55907;50.806;12.882;2023-08-12T14:19:49;974.2;;;32.6;31.8
68873;BME280;55907;50.806;12.882;2023-08-12T14:22:50;974.1;;;32.9;31.1
68873;BME280;55907;50.806;12.882;2023-08-12T14:25:51;974.1;;;33.0;30.5
68873;BME280;55907;50.806;12.882;2023-08-12T14:28:52;974.0;;;33.0;31.2
68873;BME280;55907;50.806;12.882;2023-08-12T14:31:54;974.0;;;33.1;31.8
68873;BME280;55907;50.806;12.882;2023-08-12T14:34:55;974.0;;;33.0;31.1
68873;BME280;55907;50.806;12.882;2023-08-12T14:37:56;974.0;;;32.9;32.3
68873;BME280;55907;50.806;12.882;2023-08-12T14:40:58;973.9;;;32.9;32.9
68873;BME280;55907;50.806;12.882;2023-08-12T14:43:59;973.9;;;33.1;33.3
68873;BME280;55907;50.806;12.882;2023-08-12T14:47:00;973.8;;;33.2;31.7
68873;BME280;55907;50.806;12.882;2023-08-12T14:50:02;973.7;;;33.0;30.9
68873;BME280;55907;50.806;12.882;2023-08-12T14:53:03;973.7;;;32.8;31.6
68873;BME280;55907;50.806;12.882;2023-08-12T14:56:04;973.7;;;32.6;31.7
68873;BME280;55907;50.806;12.882;2023-08-12T14:59:06;973.7;;;32.3;31.3
68873;BME280;55907;50.806;12.882;2023-08-12T15:02:07;973.7;;;32.1;32.2
68873;BME280;55907;50.806;12.882;2023-08-12T15:05:08;973.7;;;32.2;33.2
68873;BME280;55907;50.806;12.882;2023-08-12T15:08:10;973.7;;;32.2;33.4
68873;BME280;55907;50.806;12.882;2023-08-12T15:11:11;973.7;;;32.1;32.5
68873;BME280;55907;50.806;12.882;2023-08-12T15:14:12;973.7;;;32.0;33.3
68873;BME280;55907;50.806;12.882;2023-08-12T15:17:14;973.7;;;31.8;34.4
68873;BME280;55907;50.806;12.882;2023-08-12T15:20:15;973.7;;;31.4;34.4
68873;BME280;55907;50.806;12.882;2023-08-12T15:23:16;973.8;;;31.0;34.5
68873;BME280;55907;50.806;12.882;2023-08-12T15:26:18;973.8;;;30.7;34.5
68873;BME280;55907;50.806;12.882;2023-08-12T15:29:19;973.8;;;30.5;35.0
68873;BME280;55907;50.806;12.882;2023-08-12T15:32:20;973.9;;;30.3;35.3
68873;BME280;55907;50.806;12.882;2023-08-12T15:35:22;973.8;;;30.2;35.5
68873;BME280;55907;50.806;12.882;2023-08-12T15:38:23;973.9;;;30.1;35.4
68873;BME280;55907;50.806;12.882;2023-08-12T15:41:25;974.0;;;30.0;36.0
68873;BME280;55907;50.806;12.882;2023-08-12T15:44:26;974.5;;;29.8;36.6
68873;BME280;55907;50.806;12.882;2023-08-12T15:47:27;975.2;;;29.0;47.0
68873;BME280;55907;50.806;12.882;2023-08-12T15:50:29;975.5;;;26.9;64.4
68873;BME280;55907;50.806;12.882;2023-08-12T15:53:30;975.6;;;24.5;74.1
68873;BME280;55907;50.806;12.882;2023-08-12T15:56:32;975.6;;;23.2;77.1
68873;BME280;55907;50.806;12.882;2023-08-12T15:59:33;975.7;;;22.8;80.0
68873;BME280;55907;50.806;12.882;2023-08-12T16:02:34;975.8;;;22.3;83.6
68873;BME280;55907;50.806;12.882;2023-08-12T16:05:36;975.9;;;21.9;84.4
68873;BME280;55907;50.806;12.882;2023-08-12T16:08:37;975.9;;;21.7;84.9
68873;BME280;55907;50.806;12.882;2023-08-12T16:11:39;975.9;;;21.4;90.0
68873;BME280;55907;50.806;12.882;2023-08-12T16:14:40;975.9;;;21.3;90.1
68873;BME280;55907;50.806;12.882;2023-08-12T16:17:41;975.9;;;21.2;90.8
68873;BME280;55907;50.806;12.882;2023-08-12T16:20:43;975.8;;;21.0;93.1
68873;BME280;55907;50.806;12.882;2023-08-12T16:23:44;975.8;;;20.9;93.6
68873;BME280;55907;50.806;12.882;2023-08-12T16:26:46;975.8;;;20.7;94.3
68873;BME280;55907;50.806;12.882;2023-08-12T16:29:47;975.6;;;20.6;93.9
68873;BME280;55907;50.806;12.882;2023-08-12T16:32:49;975.4;;;20.4;93.3
68873;BME280;55907;50.806;12.882;2023-08-12T16:35:50;975.4;;;20.4;91.2
68873;BME280;55907;50.806;12.882;2023-08-12T16:38:51;975.5;;;20.4;93.6
68873;BME280;55907;50.806;12.882;2023-08-12T16:41:53;975.4;;;20.3;92.9
68873;BME280;55907;50.806;12.882;2023-08-12T16:44:54;975.3;;;20.2;91.4
68873;BME280;55907;50.806;12.882;2023-08-12T16:47:56;975.2;;;20.1;93.4
68873;BME280;55907;50.806;12.882;2023-08-12T16:50:57;975.1;;;20.1;93.7
68873;BME280;55907;50.806;12.882;2023-08-12T16:53:59;975.1;;;20.2;92.6
68873;BME280;55907;50.806;12.882;2023-08-12T16:57:00;975.0;;;20.2;94.4